Time;durP1;ratioP1;P1;durP2;ratioP2;P2;SDS_P1;SDS_P2;PMS_P1;PMS_P2;Temp;Humidity;BMP_temperature;BMP_pressure;BME280_temperature;BME280_humidity;BME280_pressure;Samples;Min_cycle;Max_cycle;Signal;HPM_P1;HPM_P2
2021/12/14 00:00:16;;;;;;;19.23;11.40;;;6.80;99.90;;;;;;4935072;29;20590;-70
2021/12/14 00:02:43;;;;;;;24.30;13.20;;;6.80;99.90;;;;;;4950032;29;20433;-72
2021/12/14 00:05:10;;;;;;;22.83;12.97;;;6.70;99.90;;;;;;4947012;28;20474;-71
2021/12/14 00:07:35;;;;;;;24.50;14.43;;;6.80;99.90;;;;;;4944555;29;20433;-71
2021/12/14 00:10:14;;;;;;;28.50;14.77;;;6.80;99.90;;;;;;4940582;29;20491;-71
2021/12/14 00:15:24;;;;;;;21.90;12.77;;;6.60;99.90;;;;;;4945550;29;20436;-71
2021/12/14 00:17:54;;;;;;;23.77;13.00;;;6.50;99.90;;;;;;4949707;28;20430;-71
2021/12/14 00:20:26;;;;;;;31.37;16.30;;;6.50;99.90;;;;;;4949956;29;20702;-71
2021/12/14 00:25:48;;;;;;;26.70;14.80;;;6.50;99.90;;;;;;4934811;29;20453;-71
2021/12/14 00:28:22;;;;;;;26.30;13.20;;;6.40;99.90;;;;;;4948001;29;20440;-72
2021/12/14 00:30:49;;;;;;;26.30;13.20;;;6.40;99.90;;;;;;4947985;29;20472;-72
2021/12/14 00:33:18;;;;;;;23.60;13.40;;;6.40;99.90;;;;;;4937575;29;20436;-70
2021/12/14 00:35:45;;;;;;;26.33;13.30;;;6.40;99.90;;;;;;4936818;29;20473;-71
2021/12/14 00:38:14;;;;;;;26.90;13.30;;;6.40;99.90;;;;;;4952305;28;20436;-71
2021/12/14 00:40:44;;;;;;;25.10;12.97;;;6.40;99.90;;;;;;4935782;28;20974;-71
2021/12/14 00:43:10;;;;;;;34.77;13.87;;;6.40;99.90;;;;;;4946942;28;20465;-69
2021/12/14 00:45:39;;;;;;;29.53;13.27;;;6.40;99.90;;;;;;4939675;29;20436;-71
2021/12/14 00:48:07;;;;;;;22.40;11.93;;;6.30;99.90;;;;;;4943085;29;20966;-71
2021/12/14 00:50:34;;;;;;;28.80;13.33;;;6.30;99.90;;;;;;4938302;29;20499;-71
2021/12/14 00:53:00;;;;;;;27.90;12.67;;;6.40;99.90;;;;;;4939239;29;20516;-71
2021/12/14 00:55:31;;;;;;;22.60;12.13;;;6.40;99.90;;;;;;4952906;28;20428;-72
2021/12/14 00:57:58;;;;;;;28.13;14.17;;;6.40;99.90;;;;;;4958934;28;20460;-70
2021/12/14 01:00:31;;;;;;;23.63;13.77;;;6.40;99.90;;;;;;4952521;29;20514;-71
2021/12/14 01:02:57;;;;;;;26.57;11.20;;;6.40;99.90;;;;;;4938911;29;20942;-71
2021/12/14 01:05:31;;;;;;;25.20;12.23;;;6.50;99.90;;;;;;4945210;28;20465;-72
2021/12/14 01:07:58;;;;;;;19.97;10.87;;;6.60;99.90;;;;;;4934592;29;21000;-71
2021/12/14 01:10:35;;;;;;;19.70;10.33;;;6.50;99.90;;;;;;4949669;29;20470;-71
2021/12/14 01:13:06;;;;;;;15.40;9.90;;;6.50;99.90;;;;;;4948411;28;20428;-71
2021/12/14 01:16:01;;;;;;;14.37;10.07;;;6.50;99.90;;;;;;4934156;29;20421;-71
2021/12/14 01:21:17;;;;;;;21.43;11.30;;;6.60;99.90;;;;;;4939678;29;20448;-71
2021/12/14 01:23:45;;;;;;;13.60;8.80;;;6.60;99.90;;;;;;4953281;28;20420;-71
2021/12/14 01:26:14;;;;;;;21.13;10.40;;;6.60;99.90;;;;;;4938803;28;20493;-71
2021/12/14 01:28:43;;;;;;;21.20;10.80;;;6.70;99.90;;;;;;4941829;29;20483;-71
2021/12/14 01:31:21;;;;;;;21.53;11.20;;;6.60;99.90;;;;;;4938044;29;20457;-71
2021/12/14 01:33:54;;;;;;;19.10;11.30;;;6.60;99.90;;;;;;4937152;29;20435;-71
2021/12/14 01:36:29;;;;;;;22.53;10.17;;;6.60;99.90;;;;;;4952682;29;20431;-71
2021/12/14 01:41:42;;;;;;;19.80;11.17;;;6.60;99.90;;;;;;4957927;28;20551;-71
2021/12/14 01:44:08;;;;;;;25.37;12.57;;;6.60;99.90;;;;;;4942131;28;20523;-71
2021/12/14 01:46:45;;;;;;;22.20;11.50;;;6.70;99.90;;;;;;4943641;29;20955;-72
2021/12/14 01:49:13;;;;;;;16.63;10.33;;;6.70;99.90;;;;;;4936721;29;20524;-72
2021/12/14 01:51:43;;;;;;;22.70;12.27;;;6.80;99.90;;;;;;4946956;29;20456;-70
2021/12/14 01:54:13;;;;;;;16.23;10.30;;;6.80;99.90;;;;;;4942489;28;20839;-72
2021/12/14 01:56:40;;;;;;;20.60;10.50;;;6.80;99.90;;;;;;4950350;29;20423;-71
2021/12/14 01:59:10;;;;;;;24.57;12.33;;;6.80;99.90;;;;;;4954783;28;20432;-71
2021/12/14 02:01:53;;;;;;;15.90;10.07;;;6.80;99.90;;;;;;4955743;28;21008;-72
2021/12/14 02:04:20;;;;;;;18.47;10.67;;;6.90;99.90;;;;;;4941059;28;20433;-71
2021/12/14 02:06:55;;;;;;;21.33;12.47;;;6.90;99.90;;;;;;4952190;28;20513;-70
2021/12/14 02:09:23;;;;;;;21.57;11.50;;;6.90;99.90;;;;;;4937295;29;20442;-70
2021/12/14 02:11:52;;;;;;;22.10;11.83;;;6.90;99.90;;;;;;4952418;28;20471;-72
2021/12/14 02:14:19;;;;;;;16.93;9.57;;;6.80;99.90;;;;;;4951759;29;20855;-71
2021/12/14 02:16:48;;;;;;;17.93;10.40;;;6.60;99.90;;;;;;4947111;29;20654;-71
2021/12/14 02:19:15;;;;;;;23.33;12.03;;;6.50;99.90;;;;;;4949263;28;20521;-70
2021/12/14 02:21:46;;;;;;;26.20;11.53;;;6.50;99.90;;;;;;4937031;29;20451;-71
2021/12/14 02:24:13;;;;;;;23.00;10.80;;;6.50;99.90;;;;;;4949908;29;20440;-70
2021/12/14 02:26:43;;;;;;;20.03;11.57;;;6.60;99.90;;;;;;4938421;28;20444;-72
2021/12/14 02:29:19;;;;;;;21.30;12.10;;;6.60;99.90;;;;;;4937096;29;20437;-70
2021/12/14 02:31:45;;;;;;;20.37;11.27;;;6.70;99.90;;;;;;4942811;29;20464;-70
2021/12/14 02:34:10;;;;;;;17.20;10.37;;;6.70;99.90;;;;;;4940702;29;20445;-71
2021/12/14 02:36:46;;;;;;;18.47;9.97;;;6.70;99.90;;;;;;4943358;29;20443;-71
2021/12/14 02:39:46;;;;;;;20.40;10.33;;;6.70;99.90;;;;;;4949331;28;20173;-71
2021/12/14 02:42:24;;;;;;;22.87;13.00;;;6.70;99.90;;;;;;4951576;29;20996;-71
2021/12/14 02:44:52;;;;;;;22.77;11.27;;;6.70;99.90;;;;;;4940184;29;20436;-71
2021/12/14 02:47:19;;;;;;;17.97;9.53;;;6.70;99.90;;;;;;4948275;28;20452;-71
2021/12/14 02:49:45;;;;;;;19.80;12.23;;;6.70;99.90;;;;;;4936456;29;20557;-71
2021/12/14 02:52:20;;;;;;;21.93;10.43;;;6.70;99.90;;;;;;4950391;28;20460;-71
2021/12/14 02:54:53;;;;;;;21.77;10.90;;;6.50;99.90;;;;;;4939506;29;20432;-71
2021/12/14 02:57:26;;;;;;;27.57;11.17;;;6.50;99.90;;;;;;4955157;28;20435;-71
2021/12/14 02:59:54;;;;;;;25.53;10.57;;;6.40;99.90;;;;;;4940361;28;20456;-71
2021/12/14 03:02:27;;;;;;;26.40;10.37;;;6.40;99.90;;;;;;4944268;29;20483;-71
2021/12/14 03:05:06;;;;;;;24.40;12.27;;;6.30;99.90;;;;;;4948376;28;20441;-71
2021/12/14 03:07:38;;;;;;;21.97;10.53;;;6.40;99.90;;;;;;4936960;29;20786;-71
2021/12/14 03:12:48;;;;;;;16.63;9.50;;;6.50;99.90;;;;;;4938480;29;20473;-71
2021/12/14 03:15:29;;;;;;;17.40;9.07;;;6.50;99.90;;;;;;4952645;28;20444;-71
2021/12/14 03:17:59;;;;;;;14.63;7.67;;;6.50;99.90;;;;;;4949405;29;20792;-71
2021/12/14 03:20:33;;;;;;;14.13;8.20;;;6.50;99.90;;;;;;4943378;29;20799;-71
2021/12/14 03:23:04;;;;;;;16.70;9.13;;;6.50;99.90;;;;;;4953848;28;20439;-71
2021/12/14 03:25:31;;;;;;;19.97;9.60;;;6.60;99.90;;;;;;4952335;28;20531;-72
2021/12/14 03:27:58;;;;;;;22.77;8.77;;;6.60;99.90;;;;;;4953564;29;20976;-72
2021/12/14 03:30:26;;;;;;;19.83;8.73;;;6.60;99.90;;;;;;4938674;28;20467;-71
2021/12/14 03:32:56;;;;;;;18.23;9.23;;;6.60;99.90;;;;;;4946953;29;20559;-70
2021/12/14 03:35:40;;;;;;;32.73;9.50;;;6.60;99.90;;;;;;4953505;28;20443;-71
2021/12/14 03:38:12;;;;;;;23.87;10.83;;;6.80;99.90;;;;;;4935845;29;20729;-71
2021/12/14 03:40:38;;;;;;;15.77;8.97;;;6.80;99.90;;;;;;4947200;29;20974;-71
2021/12/14 03:43:04;;;;;;;20.53;9.10;;;6.70;99.90;;;;;;4954494;28;20443;-72
2021/12/14 03:45:30;;;;;;;19.40;9.40;;;6.50;99.90;;;;;;4940569;28;20428;-71
2021/12/14 03:47:58;;;;;;;15.60;8.17;;;6.30;99.90;;;;;;4942174;29;20432;-71
2021/12/14 03:50:40;;;;;;;19.47;8.40;;;6.20;99.90;;;;;;4943696;28;20259;-71
2021/12/14 03:53:06;;;;;;;18.70;10.13;;;6.20;99.90;;;;;;4944293;28;20433;-71
2021/12/14 03:55:40;;;;;;;16.50;8.10;;;6.20;99.90;;;;;;4951357;29;20870;-71
2021/12/14 03:58:23;;;;;;;15.97;8.50;;;6.10;99.90;;;;;;4953901;28;20490;-71
2021/12/14 04:01:00;;;;;;;14.40;7.63;;;6.00;99.90;;;;;;4949610;28;21009;-71
2021/12/14 04:03:28;;;;;;;12.00;6.53;;;6.00;99.90;;;;;;4949947;28;20805;-71
2021/12/14 04:05:55;;;;;;;5.80;4.50;;;5.90;99.90;;;;;;4938478;29;20537;-71
2021/12/14 04:08:22;;;;;;;8.13;5.67;;;5.80;99.90;;;;;;4953077;28;20479;-69
2021/12/14 04:10:49;;;;;;;11.27;5.73;;;5.70;99.90;;;;;;4940392;29;20479;-70
2021/12/14 04:13:31;;;;;;;14.10;6.70;;;5.70;99.90;;;;;;4941309;29;20810;-70
2021/12/14 04:15:57;;;;;;;11.30;5.50;;;5.60;99.90;;;;;;4949022;29;20443;-70
2021/12/14 04:18:26;;;;;;;7.77;5.67;;;5.60;99.90;;;;;;4948902;28;20441;-70
2021/12/14 04:20:55;;;;;;;11.27;6.37;;;5.50;99.90;;;;;;4947356;29;20212;-70
2021/12/14 04:23:23;;;;;;;9.00;6.13;;;5.40;99.90;;;;;;4937699;29;20532;-70
2021/12/14 04:25:50;;;;;;;10.87;6.73;;;5.40;99.90;;;;;;4948803;28;20433;-71
2021/12/14 04:28:22;;;;;;;9.87;6.40;;;5.40;99.90;;;;;;4942563;28;20437;-71
2021/12/14 04:30:48;;;;;;;8.67;5.00;;;5.40;99.90;;;;;;4943508;28;20467;-71
2021/12/14 04:33:22;;;;;;;8.20;4.90;;;5.40;99.90;;;;;;4938382;29;20437;-71
2021/12/14 04:35:48;;;;;;;8.77;5.03;;;5.40;99.90;;;;;;4952828;29;20445;-71
2021/12/14 04:38:21;;;;;;;7.77;5.03;;;5.40;99.90;;;;;;4944499;28;20438;-71
2021/12/14 04:52:00;;;;;;;5.73;4.07;;;5.40;99.90;;;;;;4940918;29;20464;-71
2021/12/14 04:54:39;;;;;;;7.87;5.53;;;5.50;99.90;;;;;;4949974;29;20451;-71
2021/12/14 04:57:21;;;;;;;9.60;5.50;;;5.60;99.90;;;;;;4947796;28;20820;-71
2021/12/14 04:59:47;;;;;;;7.17;4.73;;;5.40;99.90;;;;;;4945250;29;20468;-71
2021/12/14 05:02:21;;;;;;;5.80;4.60;;;5.30;99.90;;;;;;4953740;28;20441;-71
2021/12/14 05:04:47;;;;;;;6.97;4.93;;;5.30;99.90;;;;;;4937399;29;20444;-71
2021/12/14 05:09:57;;;;;;;7.13;4.90;;;5.20;99.90;;;;;;4941017;28;20216;-71
2021/12/14 05:12:28;;;;;;;11.77;6.73;;;5.30;99.90;;;;;;4934300;29;20468;-71
2021/12/14 05:14:54;;;;;;;7.00;5.47;;;5.30;99.90;;;;;;4947526;28;20445;-71
2021/12/14 05:17:23;;;;;;;9.20;5.50;;;5.30;99.90;;;;;;4947033;29;20527;-72
2021/12/14 05:19:51;;;;;;;9.60;6.03;;;5.20;99.90;;;;;;4944220;28;20593;-72
2021/12/14 05:22:23;;;;;;;9.47;5.83;;;5.10;99.90;;;;;;4953271;29;20437;-72
2021/12/14 05:24:53;;;;;;;9.53;5.87;;;5.00;99.90;;;;;;4955489;28;20543;-72
2021/12/14 05:27:25;;;;;;;15.57;6.17;;;5.00;99.90;;;;;;4949475;28;20449;-72
2021/12/14 05:29:51;;;;;;;10.70;6.23;;;5.00;99.90;;;;;;4939055;29;20809;-72
2021/12/14 05:32:18;;;;;;;8.60;5.80;;;5.00;99.90;;;;;;4938950;29;20544;-72
2021/12/14 05:34:46;;;;;;;9.80;5.30;;;5.10;99.90;;;;;;4955884;29;20185;-72
2021/12/14 05:37:18;;;;;;;9.37;5.30;;;5.20;99.90;;;;;;4950092;28;20477;-72
2021/12/14 05:39:57;;;;;;;8.10;5.80;;;5.30;99.90;;;;;;4948185;29;21205;-72
2021/12/14 05:45:11;;;;;;;8.27;5.63;;;5.40;99.90;;;;;;4948791;29;20447;-72
2021/12/14 05:47:57;;;;;;;8.30;5.73;;;5.30;99.90;;;;;;4946272;28;20749;-72
2021/12/14 05:50:27;;;;;;;6.83;5.07;;;5.30;99.90;;;;;;4948599;29;20464;-72
2021/12/14 05:52:54;;;;;;;5.90;5.10;;;5.10;99.90;;;;;;4954550;29;20478;-72
2021/12/14 05:55:24;;;;;;;8.40;6.67;;;5.00;99.90;;;;;;4954074;29;20450;-72
2021/12/14 05:57:51;;;;;;;7.97;5.97;;;5.00;99.90;;;;;;4945056;28;20477;-72
2021/12/14 06:00:18;;;;;;;7.13;5.23;;;4.90;99.90;;;;;;4940504;29;20519;-72
2021/12/14 06:02:44;;;;;;;6.83;5.10;;;4.90;99.90;;;;;;4942793;28;20445;-72
2021/12/14 06:05:14;;;;;;;8.63;5.60;;;5.00;99.90;;;;;;4948075;29;20445;-72
2021/12/14 06:07:40;;;;;;;8.33;5.07;;;5.00;99.90;;;;;;4946038;29;20476;-72
2021/12/14 06:10:07;;;;;;;9.20;6.37;;;5.10;99.90;;;;;;4955183;28;21004;-72
2021/12/14 06:12:35;;;;;;;8.20;5.80;;;5.10;99.90;;;;;;4954649;28;20460;-72
2021/12/14 06:15:02;;;;;;;9.27;5.90;;;5.00;99.90;;;;;;4955892;28;20441;-72
2021/12/14 06:17:34;;;;;;;7.20;5.70;;;5.10;99.90;;;;;;4939764;28;20429;-72
2021/12/14 06:20:07;;;;;;;9.77;5.90;;;5.10;99.90;;;;;;4949287;29;20468;-72
2021/12/14 06:22:34;;;;;;;10.40;6.53;;;5.10;99.90;;;;;;4954593;28;20471;-72
2021/12/14 06:25:05;;;;;;;12.33;7.43;;;5.10;99.90;;;;;;4938777;29;20437;-72
2021/12/14 06:27:31;;;;;;;8.33;5.80;;;5.10;99.90;;;;;;4970058;28;20488;-72
2021/12/14 06:30:04;;;;;;;9.33;5.50;;;5.00;99.90;;;;;;4938531;28;20508;-72
2021/12/14 06:32:35;;;;;;;6.93;5.63;;;4.90;99.90;;;;;;4944531;28;20473;-72
2021/12/14 06:35:07;;;;;;;7.00;5.93;;;4.90;99.90;;;;;;4941652;28;20532;-72
2021/12/14 06:40:22;;;;;;;10.47;6.20;;;4.90;99.90;;;;;;4937918;28;20457;-72
2021/12/14 06:42:55;;;;;;;8.60;6.30;;;4.80;99.90;;;;;;4955811;28;21012;-72
2021/12/14 06:45:34;;;;;;;9.50;7.57;;;4.70;99.90;;;;;;4943655;29;20520;-72
2021/12/14 06:48:19;;;;;;;12.43;7.63;;;4.70;99.90;;;;;;4950320;29;20444;-72
2021/12/14 06:50:50;;;;;;;10.47;6.90;;;4.70;99.90;;;;;;4939049;29;20544;-72
2021/12/14 06:53:18;;;;;;;12.93;8.77;;;4.70;99.90;;;;;;4954959;28;20507;-72
2021/12/14 06:55:46;;;;;;;8.50;6.50;;;4.70;99.90;;;;;;4941976;28;20456;-72
2021/12/14 06:58:19;;;;;;;10.90;7.13;;;4.80;99.90;;;;;;4948414;28;20532;-72
2021/12/14 07:00:49;;;;;;;16.37;11.87;;;4.90;99.90;;;;;;4943069;29;20465;-72
2021/12/14 07:03:15;;;;;;;20.13;14.13;;;4.90;99.90;;;;;;4955219;28;20441;-72
2021/12/14 07:05:45;;;;;;;10.60;6.70;;;4.90;99.90;;;;;;4943908;29;20513;-72
2021/12/14 07:08:26;;;;;;;10.73;8.27;;;4.80;99.90;;;;;;4946031;29;20926;-72
2021/12/14 07:10:54;;;;;;;9.10;6.57;;;4.70;99.90;;;;;;4943807;29;20567;-72
2021/12/14 07:13:36;;;;;;;9.60;7.73;;;4.70;99.90;;;;;;4947410;28;21097;-72
2021/12/14 07:16:19;;;;;;;10.13;7.97;;;4.60;99.90;;;;;;4939834;29;20437;-72
2021/12/14 07:18:45;;;;;;;9.43;7.40;;;4.60;99.90;;;;;;4954291;28;20508;-72
2021/12/14 07:21:10;;;;;;;10.87;8.07;;;4.60;99.90;;;;;;4954431;28;20464;-72
2021/12/14 07:23:37;;;;;;;9.70;7.03;;;4.70;99.90;;;;;;4945244;29;20440;-72
2021/12/14 07:26:08;;;;;;;9.43;7.60;;;4.60;99.90;;;;;;4935576;29;20186;-72
2021/12/14 07:28:40;;;;;;;7.97;7.10;;;4.60;99.90;;;;;;4952715;29;20508;-72
2021/12/14 07:31:23;;;;;;;9.30;7.57;;;4.60;99.90;;;;;;4940104;29;20470;-72
2021/12/14 07:33:58;;;;;;;8.80;7.67;;;4.60;99.90;;;;;;4946074;29;20780;-72
2021/12/14 07:36:30;;;;;;;11.40;8.57;;;4.60;99.90;;;;;;4945188;28;20446;-72
2021/12/14 07:39:05;;;;;;;10.77;8.53;;;4.50;99.90;;;;;;4950647;28;20498;-73
2021/12/14 07:41:33;;;;;;;10.47;8.50;;;4.40;99.90;;;;;;4923372;29;20455;-73
2021/12/14 07:44:17;;;;;;;11.73;7.97;;;4.40;99.90;;;;;;4942571;29;20970;-73
2021/12/14 07:47:04;;;;;;;10.50;8.40;;;4.50;99.90;;;;;;4951019;28;20459;-73
2021/12/14 07:49:44;;;;;;;9.53;7.40;;;4.60;99.90;;;;;;4941398;29;21043;-73
2021/12/14 07:52:17;;;;;;;8.57;6.90;;;4.70;99.90;;;;;;4951277;29;20459;-74
2021/12/14 07:54:46;;;;;;;10.47;8.33;;;4.80;99.90;;;;;;4945432;28;20433;-73
2021/12/14 07:57:24;;;;;;;11.27;8.97;;;5.00;99.90;;;;;;4953775;28;20420;-73
2021/12/14 07:59:53;;;;;;;7.77;6.97;;;5.20;99.90;;;;;;4945851;29;20450;-73
2021/12/14 08:02:28;;;;;;;8.93;7.77;;;5.20;99.90;;;;;;4940090;28;20854;-73
2021/12/14 08:04:59;;;;;;;9.60;6.87;;;5.10;99.90;;;;;;4953644;28;20870;-73
2021/12/14 08:07:38;;;;;;;9.20;7.17;;;5.00;99.90;;;;;;4946191;28;20781;-73
2021/12/14 08:10:21;;;;;;;10.30;8.40;;;4.90;99.90;;;;;;4944711;29;20494;-73
2021/12/14 08:12:53;;;;;;;11.03;7.73;;;4.80;99.90;;;;;;4942890;29;20461;-73
2021/12/14 08:15:29;;;;;;;9.97;7.57;;;4.90;99.90;;;;;;4949363;29;20503;-73
2021/12/14 08:18:06;;;;;;;10.40;7.87;;;5.00;99.90;;;;;;4935079;29;20891;-73
2021/12/14 08:20:40;;;;;;;10.13;8.07;;;5.10;99.90;;;;;;4940660;28;21016;-73
2021/12/14 08:23:14;;;;;;;9.13;8.00;;;5.20;99.90;;;;;;4949848;28;20441;-73
2021/12/14 08:25:41;;;;;;;8.73;6.93;;;5.40;99.90;;;;;;4944271;28;20472;-71
2021/12/14 08:28:08;;;;;;;7.73;6.80;;;5.80;99.90;;;;;;4947803;29;21001;-71
2021/12/14 08:30:37;;;;;;;8.53;6.60;;;6.00;99.90;;;;;;4952283;28;20456;-71
2021/12/14 08:33:03;;;;;;;9.67;7.37;;;6.20;99.90;;;;;;4938828;29;20469;-71
2021/12/14 08:35:30;;;;;;;11.47;8.10;;;6.10;99.90;;;;;;4948805;29;20472;-70
2021/12/14 08:37:59;;;;;;;10.70;7.57;;;6.00;99.90;;;;;;4936193;29;20483;-69
2021/12/14 08:40:37;;;;;;;7.60;6.50;;;6.10;99.90;;;;;;4941956;29;20457;-70
2021/12/14 08:43:12;;;;;;;12.57;9.17;;;6.20;99.90;;;;;;4943741;29;20487;-70
2021/12/14 08:45:53;;;;;;;14.37;8.73;;;6.40;99.90;;;;;;4954223;28;20436;-72
2021/12/14 08:48:26;;;;;;;10.07;7.53;;;6.70;99.90;;;;;;4939688;28;20468;-72
2021/12/14 08:50:55;;;;;;;10.97;7.50;;;7.10;99.90;;;;;;4954530;28;20982;-70
2021/12/14 08:53:24;;;;;;;11.63;9.23;;;7.50;99.90;;;;;;4937271;28;20448;-69
2021/12/14 08:55:55;;;;;;;11.63;7.10;;;8.10;99.90;;;;;;4941992;28;20440;-69
2021/12/14 08:58:21;;;;;;;7.07;6.30;;;9.40;99.90;;;;;;4957263;28;20433;-69
2021/12/14 09:00:58;;;;;;;8.60;6.47;;;10.50;99.90;;;;;;4953789;28;20849;-72
2021/12/14 09:03:36;;;;;;;11.90;9.10;;;10.90;99.90;;;;;;4943107;29;20447;-70
2021/12/14 09:06:16;;;;;;;9.13;6.30;;;10.40;99.90;;;;;;4941282;28;20881;-70
2021/12/14 09:08:43;;;;;;;7.17;6.00;;;9.90;99.90;;;;;;4937370;29;20945;-70
2021/12/14 09:11:11;;;;;;;7.17;5.97;;;10.80;99.90;;;;;;4953848;28;20475;-70
2021/12/14 09:13:39;;;;;;;9.50;6.20;;;10.50;99.90;;;;;;4953909;28;20464;-70
2021/12/14 09:16:12;;;;;;;7.53;5.83;;;10.80;99.90;;;;;;4953317;28;20432;-70
2021/12/14 09:18:43;;;;;;;8.50;6.60;;;11.60;99.90;;;;;;4953243;28;20432;-70
2021/12/14 09:21:38;;;;;;;10.53;6.20;;;12.90;99.90;;;;;;4953757;28;20471;-70
2021/12/14 09:24:08;;;;;;;7.53;6.47;;;14.50;99.90;;;;;;4953419;28;20433;-70
2021/12/14 09:26:39;;;;;;;6.33;5.73;;;15.00;99.90;;;;;;4954267;28;20482;-70
2021/12/14 09:29:08;;;;;;;6.40;5.80;;;15.20;99.90;;;;;;4959054;28;20435;-70
2021/12/14 09:31:37;;;;;;;5.03;4.53;;;15.40;99.90;;;;;;4948798;28;20468;-70
2021/12/14 09:34:05;;;;;;;5.07;4.67;;;15.80;99.90;;;;;;4941961;28;20440;-70
2021/12/14 09:36:31;;;;;;;5.47;5.07;;;15.70;99.90;;;;;;4951582;28;20440;-70
2021/12/14 09:39:09;;;;;;;6.53;5.37;;;15.40;99.90;;;;;;4941150;28;20966;-70
2021/12/14 09:41:35;;;;;;;8.03;5.73;;;14.70;99.90;;;;;;4941119;29;20770;-70
2021/12/14 09:44:05;;;;;;;4.70;4.30;;;14.30;99.90;;;;;;4939101;29;20518;-70
2021/12/14 09:46:32;;;;;;;6.17;5.17;;;13.70;99.90;;;;;;4947215;28;20448;-70
2021/12/14 09:49:01;;;;;;;5.50;5.00;;;13.40;99.90;;;;;;4946822;28;20963;-69
2021/12/14 09:51:31;;;;;;;4.40;3.93;;;13.70;99.90;;;;;;4952827;29;20471;-69
2021/12/14 09:54:03;;;;;;;4.57;3.83;;;14.80;99.90;;;;;;4956413;28;20420;-70
2021/12/14 09:56:38;;;;;;;4.97;4.57;;;15.70;99.90;;;;;;4955206;28;20432;-70
2021/12/14 09:59:05;;;;;;;6.57;5.87;;;16.30;99.90;;;;;;4956293;28;20434;-70
2021/12/14 10:01:34;;;;;;;5.73;5.27;;;15.90;99.90;;;;;;4955293;28;20857;-70
2021/12/14 10:04:07;;;;;;;5.63;5.13;;;14.50;99.90;;;;;;4952905;29;20998;-70
2021/12/14 10:06:34;;;;;;;6.70;6.10;;;13.10;99.90;;;;;;4937144;29;20864;-69
2021/12/14 10:09:07;;;;;;;5.10;4.43;;;12.50;99.90;;;;;;4948897;28;20494;-70
2021/12/14 10:12:03;;;;;;;5.63;5.13;;;12.30;99.90;;;;;;4943605;28;20507;-69
2021/12/14 10:14:34;;;;;;;5.77;5.27;;;12.10;99.90;;;;;;4951584;29;20958;-69
2021/12/14 10:17:01;;;;;;;5.40;4.70;;;11.90;99.90;;;;;;4946754;28;20854;-69
2021/12/14 10:19:31;;;;;;;5.63;5.10;;;11.50;99.90;;;;;;4942430;29;20460;-70
2021/12/14 10:22:05;;;;;;;5.23;4.67;;;11.10;99.90;;;;;;4940902;29;20557;-69
2021/12/14 10:24:32;;;;;;;6.30;5.03;;;11.10;99.90;;;;;;4940068;29;20452;-69
2021/12/14 10:27:02;;;;;;;5.93;5.43;;;11.10;99.90;;;;;;4946915;29;20507;-69
2021/12/14 10:29:29;;;;;;;5.20;4.70;;;11.10;99.90;;;;;;4945623;28;20468;-69
2021/12/14 10:32:03;;;;;;;5.73;4.83;;;11.00;99.90;;;;;;4948457;28;20563;-69
2021/12/14 10:34:34;;;;;;;4.90;4.50;;;11.00;99.90;;;;;;4939752;28;20471;-69
2021/12/14 10:37:15;;;;;;;5.30;4.80;;;10.90;99.90;;;;;;4955372;28;20428;-70
2021/12/14 10:45:12;;;;;;;5.50;5.00;;;11.00;99.90;;;;;;4941897;29;20448;-69
2021/12/14 10:47:39;;;;;;;5.40;5.00;;;11.30;99.90;;;;;;4955335;28;20922;-69
2021/12/14 10:50:08;;;;;;;6.10;5.43;;;11.70;99.90;;;;;;4955014;28;20216;-69
2021/12/14 10:52:40;;;;;;;7.20;6.37;;;12.10;99.90;;;;;;4947866;28;20523;-69
2021/12/14 10:55:14;;;;;;;5.30;4.87;;;12.50;99.90;;;;;;4954410;28;20433;-69
2021/12/14 10:57:40;;;;;;;5.60;5.10;;;13.00;99.90;;;;;;4950219;28;20522;-69
2021/12/14 11:00:12;;;;;;;5.90;5.00;;;13.30;99.90;;;;;;4949097;29;20452;-69
2021/12/14 11:02:41;;;;;;;6.40;5.73;;;13.40;99.90;;;;;;4938941;28;20447;-70
2021/12/14 11:05:15;;;;;;;5.30;4.90;;;14.10;99.90;;;;;;4954873;28;20459;-69
2021/12/14 11:07:43;;;;;;;5.60;5.10;;;15.10;99.90;;;;;;4954780;28;20436;-69
2021/12/14 11:10:11;;;;;;;5.57;5.07;;;15.20;99.90;;;;;;4941406;28;21006;-70
2021/12/14 11:12:40;;;;;;;5.73;5.23;;;14.90;99.90;;;;;;4940802;29;20544;-70
2021/12/14 11:15:12;;;;;;;6.00;4.73;;;14.10;99.90;;;;;;4940895;29;20467;-69
2021/12/14 11:20:48;;;;;;;7.13;5.77;;;13.60;99.90;;;;;;4944575;29;21027;-70
2021/12/14 11:23:26;;;;;;;5.00;4.50;;;13.50;99.90;;;;;;4943645;29;20428;-70
2021/12/14 11:25:51;;;;;;;6.60;5.10;;;14.10;99.90;;;;;;4947503;28;20436;-68
2021/12/14 11:28:33;;;;;;;4.43;4.03;;;14.80;99.90;;;;;;4940844;29;20813;-69
2021/12/14 11:31:28;;;;;;;5.17;4.67;;;15.80;99.90;;;;;;4951504;29;20247;-69
2021/12/14 11:34:14;;;;;;;4.83;4.43;;;17.60;99.90;;;;;;4935741;29;20441;-69
2021/12/14 11:36:53;;;;;;;6.30;5.07;;;18.80;99.50;;;;;;4952786;29;20471;-69
2021/12/14 11:39:28;;;;;;;6.43;5.73;;;20.00;96.70;;;;;;4947522;28;20460;-69
2021/12/14 11:42:00;;;;;;;12.17;7.20;;;21.10;92.90;;;;;;4945995;28;20860;-68
2021/12/14 11:44:36;;;;;;;10.53;7.17;;;22.50;88.60;;;;;;4945074;29;20950;-69
2021/12/14 11:47:06;;;;;;;6.37;5.77;;;22.10;82.90;;;;;;4943732;28;20498;-69
2021/12/14 11:50:15;;;;;;;12.77;8.77;;;22.60;78.80;;;;;;4945498;29;21012;-69
2021/12/14 11:53:02;;;;;;;5.70;5.20;;;23.40;75.30;;;;;;4945485;29;20492;-69
2021/12/14 11:55:42;;;;;;;5.93;5.40;;;22.70;72.80;;;;;;4942921;29;20448;-69
2021/12/14 11:58:17;;;;;;;7.70;6.50;;;21.90;75.50;;;;;;4944783;29;20437;-69
2021/12/14 12:00:52;;;;;;;5.67;5.20;;;22.10;76.20;;;;;;4946786;29;21033;-69
2021/12/14 12:03:40;;;;;;;11.23;7.30;;;22.50;73.50;;;;;;4942575;29;20444;-69
2021/12/14 12:06:44;;;;;;;5.90;5.20;;;22.40;71.30;;;;;;4945119;29;20460;-69
2021/12/14 12:09:32;;;;;;;7.40;6.43;;;22.80;71.10;;;;;;4944116;29;20428;-69
2021/12/14 12:12:04;;;;;;;5.97;5.53;;;23.20;69.10;;;;;;4940856;29;20473;-69
2021/12/14 12:14:51;;;;;;;6.33;5.60;;;23.00;68.80;;;;;;4949664;29;20428;-70
2021/12/14 12:17:37;;;;;;;10.67;9.50;;;22.80;68.70;;;;;;4940927;28;20801;-69
2021/12/14 12:20:18;;;;;;;7.33;6.33;;;22.70;69.80;;;;;;4949370;29;20492;-69
2021/12/14 12:22:50;;;;;;;7.60;5.60;;;22.60;69.70;;;;;;4949659;29;20527;-70
2021/12/14 12:25:27;;;;;;;16.33;8.33;;;22.10;69.50;;;;;;4947194;28;20445;-71
2021/12/14 12:27:54;;;;;;;5.87;5.37;;;21.50;72.20;;;;;;4944563;28;20440;-72
2021/12/14 12:30:46;;;;;;;8.50;6.70;;;20.60;73.20;;;;;;4949361;29;20515;-70
2021/12/14 12:33:33;;;;;;;7.33;6.63;;;19.40;75.20;;;;;;4939720;29;20464;-68
2021/12/14 12:36:10;;;;;;;7.00;6.30;;;18.40;79.20;;;;;;4943107;28;20926;-68
2021/12/14 12:38:55;;;;;;;6.73;6.03;;;17.90;81.60;;;;;;4941339;29;20456;-68
2021/12/14 12:41:30;;;;;;;9.40;6.23;;;17.30;83.60;;;;;;4936656;29;20464;-68
2021/12/14 12:43:59;;;;;;;6.67;6.07;;;17.10;85.20;;;;;;4932344;29;20476;-70
2021/12/14 12:46:33;;;;;;;12.83;7.50;;;17.00;86.60;;;;;;4937514;29;20442;-69
2021/12/14 12:49:11;;;;;;;7.60;6.80;;;16.90;87.40;;;;;;4944259;29;20455;-69
2021/12/14 12:52:10;;;;;;;8.87;7.53;;;16.80;89.20;;;;;;4933378;29;20475;-69
2021/12/14 12:54:42;;;;;;;7.57;6.73;;;17.60;88.00;;;;;;4940756;29;20468;-69
2021/12/14 12:57:10;;;;;;;14.53;9.03;;;17.40;87.20;;;;;;4950069;28;20453;-68
2021/12/14 12:59:54;;;;;;;8.20;7.50;;;17.40;88.70;;;;;;4941874;29;20484;-68
2021/12/14 13:02:31;;;;;;;8.80;7.63;;;17.60;87.80;;;;;;4948251;28;20800;-69
2021/12/14 13:05:19;;;;;;;8.87;7.70;;;17.10;88.20;;;;;;4935647;28;20508;-69
2021/12/14 13:07:58;;;;;;;8.67;7.53;;;16.40;90.70;;;;;;4922454;29;20965;-69
2021/12/14 13:10:34;;;;;;;8.53;7.60;;;16.80;90.70;;;;;;4947197;29;20519;-68
2021/12/14 13:13:11;;;;;;;9.83;8.30;;;17.00;90.40;;;;;;4943542;29;20471;-69
2021/12/14 13:15:47;;;;;;;9.20;8.30;;;17.00;90.30;;;;;;4948609;28;20440;-68
2021/12/14 13:18:33;;;;;;;9.10;8.33;;;16.50;90.90;;;;;;4947251;28;20523;-69
2021/12/14 13:21:24;;;;;;;9.33;8.53;;;16.60;91.10;;;;;;4939532;29;20471;-68
2021/12/14 13:24:11;;;;;;;8.90;8.07;;;16.50;91.40;;;;;;4946463;29;20520;-68
2021/12/14 13:26:49;;;;;;;10.53;9.53;;;16.20;91.80;;;;;;4939982;29;20482;-69
2021/12/14 13:29:46;;;;;;;9.40;8.60;;;15.40;92.90;;;;;;4935010;28;20445;-68
2021/12/14 13:32:24;;;;;;;9.87;8.67;;;14.30;96.10;;;;;;4946765;29;20771;-68
2021/12/14 13:34:58;;;;;;;10.70;9.70;;;13.30;99.00;;;;;;4946871;28;20459;-69
2021/12/14 13:37:33;;;;;;;12.10;9.67;;;13.00;99.90;;;;;;4941731;28;20488;-68
2021/12/14 13:40:00;;;;;;;11.10;9.83;;;12.40;99.90;;;;;;4939287;28;20890;-68
2021/12/14 13:43:03;;;;;;;11.17;9.57;;;12.10;99.90;;;;;;4949613;28;20840;-68
2021/12/14 13:45:34;;;;;;;12.33;10.97;;;11.60;99.90;;;;;;4943377;28;20993;-68
2021/12/14 13:48:03;;;;;;;9.77;8.77;;;11.30;99.90;;;;;;4947917;29;20497;-68
2021/12/14 13:50:35;;;;;;;11.13;10.00;;;11.40;99.90;;;;;;4937259;29;20469;-69
2021/12/14 13:53:01;;;;;;;17.10;9.13;;;11.40;99.90;;;;;;4940924;29;20978;-68
2021/12/14 13:55:56;;;;;;;10.67;9.33;;;11.20;99.90;;;;;;4936295;28;20512;-69